Langdon, ND

2:30 PM CDT on March 28, 2017 (GMT -0500)
Langdon | | Change Station
Active Advisory: Flood Warning

Elev 1608 ft 48.75 °N, 98.39 °W | Updated 15 minutes ago

Overcast
Overcast
41 °F
Feels Like 34 °F
N
13
Wind Variable Wind from ENE

Today
High -- | Low -- °F
--% Chance of Precip.
Yesterday
High -- | Low -- °F
Precip. -- in
Pressure 30.20 in
Visibility 10.0 miles
Clouds Scattered Clouds 4200 ft
Overcast 5000 ft
Windchill 34 °F
Dew Point 36 °F
Humidity 81%
Rainfall 0.00 in
Snow Depth Not available.
7:18 AM 7:58 PM
New Moon, 1% visible
METAR KD55 281915Z AUTO 07011KT 10SM SCT042 OVC050 05/02 A3020 RMK AO2
Pressure 30.20 in
Visibility 10.0 miles
Clouds Scattered Clouds 4200 ft
Overcast 5000 ft
Windchill 34 °F
Dew Point 36 °F
Humidity 81%
Rainfall 0.00 in
Snow Depth Not available.
7:18 AM 7:58 PM
New Moon, 1% visible
METAR KD55 281915Z AUTO 07011KT 10SM SCT042 OVC050 05/02 A3020 RMK AO2

Get Your Daily Forecast Email!

Thanks for signing up!

Be on the lookout for a verification email in your inbox.

You'll start receiving severe weather alerts in your inbox..

×

10-Day Weather Forecast

Almanac

Astronomy

Mar. 28, 2017 Rise Set
Actual Time
Civil Twilight
Nautical Twilight
Astronomical Twilight
Moon
Length of Visible Light
Length of Day
Tomorrow will be .
, % of the Moon is Illuminated

Today's Extremes

State Highs State Lows

Community

WunderPhotos

Upload Photos

1,962,540 photos uploaded!

WunderBlog® & News

Nearby

Air Quality

  Air Quality AQ Index Pollutant
Not available.

Snow Depth

Station Depth Elevation

Earthquake Activity

City Distance Mag. Time & Date
Minimum magnitude displayed is 2.5.

Earthquake Activity

City Distance Mag. Time & Date
Minimum magnitude displayed is 2.5.

Coastal Water Temperatures

Place Temperature

Stations

Nearby Weather Stations

Station Location Temp. Windchill Dew Point Humidity Wind Precip. Elev Updated Type
                   

Watches & Warnings

Flood Warning
Issued: 11:36 AM CDT Mar. 28, 2017 – National Weather Service

The Flood Warning continues for...
* ... Walhalla... on the Pembina river.
* From Thursday afternoon until further notice... or until the warning
is cancelled.
* At 11:15 am Tuesday the stage was 0.0 feet.
* Minor flood stage is 11.0 feet.
* Forecast... rise above flood stage by Thursday afternoon and
continue to rise to near 13.5 feet by early Wednesday morning.
* Impact statement(s) - at 14.5 feet, flooding occurs along the left
bank.


Daily 7am CDT/6am CST forecast stage in feet:

date Wed Thu Fri Sat sun Mon Tue
(month/day) 03/29 03/30 03/31 04/01 04/02 04/03 04/04

Pembina river
Walhalla 8.3 10.1 11.8 12.4 12.7 13.0 13.2


Lat... Lon 4900 9825 4887 9808 4884 9787 4892 9764 4900 9771